»·PEaware :: AAL1180 KSJC-KSBA

AAL1180 :: KSJC-KSBA

FLIGHT INFORMATION

Flight Status: Arrived
Operator:
American Airlines
More flights by this operator :: More flights under this callsign
Pilot: Anonymous 10181 (10181)
Aircraft: BOEING 737-200
(B732)
More flights by this aircraft type
Origin: KSJC Mineta San Jose Intl
United States
Destination: KSBA Santa Barbara Mun
United States
More flights between these airports :: More routes between these airports
Route: +SJC3 AVE FLW GVO
File this flight plan on PilotEdge
Remarks: Happy Thursday!
Altitude:
(Current/Filed)
25,000ft
Speed:
(Current/Filed)
440kts
Departed: 15-Oct-20 05:44 PM
Arrived: 15-Oct-20 06:30 PM
Distance/Time
Traveled:
203nm/0:45
Distance/Time
To Go:
Arrived

Flight Plot

Page will automatically refresh every two minutes.

Flight plan parsing failed; only flown route is shown


Map Options




Map Legend


Flown Route
Filed Route
Departure Airport
Arrival Airport
Navaid (VOR, NDB)
Fix

Horizontal Profiles

Position Reports

Time Latitude Longitude Heading Altitude Ground
Speed
15-Oct-20 17:00 37.364027 -121.924276 48 71ft 0kts
15-Oct-20 17:01 37.364027 -121.924276 48 71ft 0kts
15-Oct-20 17:02 37.364027 -121.924276 48 71ft 0kts
15-Oct-20 17:03 37.364027 -121.924276 48 71ft 0kts
15-Oct-20 17:04 37.364027 -121.924276 48 71ft 0kts
15-Oct-20 17:05 37.364027 -121.924276 48 71ft 0kts
15-Oct-20 17:06 37.364027 -121.924276 48 71ft 0kts
15-Oct-20 17:07 37.364027 -121.924276 48 71ft 0kts
15-Oct-20 17:08 37.364027 -121.924276 48 71ft 0kts
15-Oct-20 17:09 37.364027 -121.924276 48 71ft 0kts
15-Oct-20 17:10 37.364027 -121.924276 48 71ft 0kts
15-Oct-20 17:11 37.364027 -121.924276 48 71ft 0kts
15-Oct-20 17:12 37.364027 -121.924276 48 71ft 0kts
15-Oct-20 17:13 37.364027 -121.924276 48 71ft 0kts
15-Oct-20 17:14 37.364027 -121.924276 48 71ft 0kts
15-Oct-20 17:15 37.364027 -121.924276 48 71ft 0kts
15-Oct-20 17:16 37.364027 -121.924276 48 71ft 0kts
15-Oct-20 17:17 37.364027 -121.924276 48 71ft 0kts
15-Oct-20 17:18 37.364027 -121.924276 48 71ft 0kts
15-Oct-20 17:19 37.364027 -121.924276 48 71ft 0kts
15-Oct-20 17:20 37.364027 -121.924276 48 71ft 0kts
15-Oct-20 17:21 37.364027 -121.924276 48 71ft 0kts
15-Oct-20 17:22 37.364027 -121.924276 48 71ft 0kts
15-Oct-20 17:23 37.364027 -121.924276 48 71ft 0kts
15-Oct-20 17:24 37.364027 -121.924276 48 71ft 0kts
15-Oct-20 17:25 37.364030 -121.924273 48 71ft 0kts
15-Oct-20 17:26 37.363756 -121.924753 73 71ft 2kts
15-Oct-20 17:27 37.363889 -121.925431 135 71ft 2kts
15-Oct-20 17:28 37.363925 -121.925473 138 71ft 0kts
15-Oct-20 17:29 37.363925 -121.925473 138 71ft 0kts
15-Oct-20 17:30 37.363925 -121.925473 138 71ft 0kts
15-Oct-20 17:31 37.363925 -121.925473 138 71ft 0kts
15-Oct-20 17:32 37.363925 -121.925473 138 71ft 0kts
15-Oct-20 17:33 37.363853 -121.925391 137 71ft 2kts
15-Oct-20 17:34 37.362333 -121.923713 138 71ft 7kts
15-Oct-20 17:35 37.360719 -121.921944 138 71ft 7kts
15-Oct-20 17:36 37.359106 -121.920160 138 71ft 8kts
15-Oct-20 17:37 37.357191 -121.918075 138 71ft 10kts
15-Oct-20 17:38 37.355025 -121.915687 140 71ft 10kts
15-Oct-20 17:39 37.353497 -121.914147 161 71ft 4kts
15-Oct-20 17:40 37.353028 -121.914526 230 71ft 0kts
15-Oct-20 17:41 37.353028 -121.914526 230 71ft 0kts
15-Oct-20 17:42 37.353005 -121.914561 230 71ft 3kts
15-Oct-20 17:43 37.356606 -121.920025 318 71ft 103kts
15-Oct-20 17:44 37.390877 -121.957096 317 2060ft 181kts
15-Oct-20 17:45 37.435710 -121.974049 58 4218ft 216kts
15-Oct-20 17:46 37.418295 -121.902546 120 4883ft 246kts
15-Oct-20 17:47 37.369842 -121.834831 131 4994ft 260kts
15-Oct-20 17:48 37.319567 -121.765252 135 7373ft 277kts
15-Oct-20 17:49 37.264012 -121.698404 136 9787ft 277kts
15-Oct-20 17:50 37.206721 -121.629590 136 12261ft 296kts
15-Oct-20 17:51 37.140713 -121.554271 138 13900ft 341kts
15-Oct-20 17:52 37.069103 -121.476262 138 16530ft 341kts
15-Oct-20 17:53 36.996740 -121.397589 138 18438ft 356kts
15-Oct-20 17:54 36.920379 -121.314746 139 20100ft 370kts
15-Oct-20 17:55 36.842137 -121.230056 139 21809ft 375kts
15-Oct-20 17:56 36.763252 -121.144870 139 23455ft 377kts
15-Oct-20 17:57 36.683945 -121.059437 139 24910ft 380kts
15-Oct-20 17:58 36.600148 -120.969396 139 25011ft 416kts
15-Oct-20 17:59 36.509193 -120.871929 139 25005ft 447kts
15-Oct-20 18:00 36.412149 -120.768240 139 25004ft 470kts
15-Oct-20 18:01 36.313304 -120.662914 139 24994ft 458kts
15-Oct-20 18:02 36.219072 -120.562645 139 25000ft 436kts
15-Oct-20 18:03 36.125823 -120.463542 139 24013ft 447kts
15-Oct-20 18:04 36.033979 -120.367270 142 23992ft 416kts
15-Oct-20 18:05 35.941317 -120.285449 144 23998ft 405kts
15-Oct-20 18:06 35.854496 -120.198196 138 24000ft 403kts
15-Oct-20 18:07 35.770264 -120.106474 138 24001ft 408kts
15-Oct-20 18:08 35.684427 -120.012962 138 24001ft 414kts
15-Oct-20 18:10 35.588017 -119.940706 172 24002ft 416kts
15-Oct-20 18:11 35.473001 -119.922400 172 23978ft 409kts
15-Oct-20 18:12 35.361051 -119.923335 191 22157ft 407kts
15-Oct-20 18:13 35.249885 -119.909111 161 20428ft 410kts
15-Oct-20 18:14 35.142178 -119.865298 177 18809ft 410kts
15-Oct-20 18:15 35.033680 -119.902955 200 17276ft 406kts
15-Oct-20 18:16 34.928430 -119.950562 200 15841ft 403kts
15-Oct-20 18:17 34.824593 -119.997463 200 14436ft 386kts
15-Oct-20 18:18 34.729807 -120.035108 190 12764ft 334kts
15-Oct-20 18:19 34.642721 -120.052146 191 10879ft 305kts
15-Oct-20 18:20 34.561986 -120.071001 179 8928ft 289kts
15-Oct-20 18:21 34.491986 -120.030295 151 6980ft 278kts
15-Oct-20 18:22 34.426568 -119.983823 132 5082ft 270kts
15-Oct-20 18:23 34.394975 -119.903199 113 3253ft 262kts
15-Oct-20 18:24 34.385928 -119.826848 92 3026ft 200kts
15-Oct-20 18:25 34.383316 -119.765800 92 3043ft 183kts
15-Oct-20 18:26 34.385487 -119.704519 46 3048ft 172kts
15-Oct-20 18:26 34.417778 -119.719124 308 3048ft 178kts
15-Oct-20 18:28 34.428050 -119.787577 274 1132ft 166kts
15-Oct-20 18:28 34.428002 -119.828046 268 162ft 134kts
15-Oct-20 18:30 34.427601 -119.848401 268 21ft 1kts
15-Oct-20 18:30 34.427154 -119.851797 202 21ft 10kts
15-Oct-20 18:32 34.426426 -119.849756 86 21ft 0kts
15-Oct-20 18:32 34.426603 -119.846147 87 21ft 15kts
15-Oct-20 18:33 34.426651 -119.841008 87 21ft 19kts
15-Oct-20 18:34 34.426785 -119.834578 113 21ft 3kts

Navigation Log

Ident Type
Flight plan parsing failed, navigation log unavailable